sensor_id;sensor_type;location;lat;lon;timestamp;P1;durP1;ratioP1;P2;durP2;ratioP2
14268;SDS011;7218;51.480;7.006;2023-02-15T00:02:20;35.85;;;19.88;;
14268;SDS011;7218;51.480;7.006;2023-02-15T00:04:46;32.17;;;20.20;;
14268;SDS011;7218;51.480;7.006;2023-02-15T00:07:13;28.77;;;18.48;;
14268;SDS011;7218;51.480;7.006;2023-02-15T00:09:40;30.95;;;19.40;;
14268;SDS011;7218;51.480;7.006;2023-02-15T00:12:08;31.35;;;18.88;;
14268;SDS011;7218;51.480;7.006;2023-02-15T00:14:36;32.20;;;18.83;;
14268;SDS011;7218;51.480;7.006;2023-02-15T00:17:03;28.42;;;18.15;;
14268;SDS011;7218;51.480;7.006;2023-02-15T00:19:30;30.50;;;19.13;;
14268;SDS011;7218;51.480;7.006;2023-02-15T00:21:56;32.55;;;19.00;;
14268;SDS011;7218;51.480;7.006;2023-02-15T00:24:23;31.35;;;17.95;;
14268;SDS011;7218;51.480;7.006;2023-02-15T00:26:50;31.55;;;18.35;;
14268;SDS011;7218;51.480;7.006;2023-02-15T00:29:18;33.47;;;18.40;;
14268;SDS011;7218;51.480;7.006;2023-02-15T00:31:46;27.83;;;16.67;;
14268;SDS011;7218;51.480;7.006;2023-02-15T00:34:14;26.00;;;17.38;;
14268;SDS011;7218;51.480;7.006;2023-02-15T00:36:42;29.85;;;18.05;;
14268;SDS011;7218;51.480;7.006;2023-02-15T00:39:09;28.45;;;18.38;;
14268;SDS011;7218;51.480;7.006;2023-02-15T00:41:36;32.00;;;17.80;;
14268;SDS011;7218;51.480;7.006;2023-02-15T00:44:03;31.17;;;18.42;;
14268;SDS011;7218;51.480;7.006;2023-02-15T00:46:30;27.67;;;17.55;;
14268;SDS011;7218;51.480;7.006;2023-02-15T00:48:58;28.23;;;17.55;;
14268;SDS011;7218;51.480;7.006;2023-02-15T00:51:25;26.60;;;17.23;;
14268;SDS011;7218;51.480;7.006;2023-02-15T00:53:52;29.27;;;18.08;;
14268;SDS011;7218;51.480;7.006;2023-02-15T00:56:18;26.70;;;16.80;;
14268;SDS011;7218;51.480;7.006;2023-02-15T00:58:45;28.00;;;17.27;;
14268;SDS011;7218;51.480;7.006;2023-02-15T01:01:12;23.83;;;16.05;;
14268;SDS011;7218;51.480;7.006;2023-02-15T01:03:40;27.73;;;16.85;;
14268;SDS011;7218;51.480;7.006;2023-02-15T01:06:09;28.45;;;16.67;;
14268;SDS011;7218;51.480;7.006;2023-02-15T01:08:36;26.17;;;16.63;;
14268;SDS011;7218;51.480;7.006;2023-02-15T01:11:03;25.70;;;16.35;;
14268;SDS011;7218;51.480;7.006;2023-02-15T01:13:31;26.30;;;16.55;;
14268;SDS011;7218;51.480;7.006;2023-02-15T01:15:57;25.23;;;16.45;;
14268;SDS011;7218;51.480;7.006;2023-02-15T01:18:24;26.85;;;16.40;;
14268;SDS011;7218;51.480;7.006;2023-02-15T01:20:51;24.13;;;15.55;;
14268;SDS011;7218;51.480;7.006;2023-02-15T01:23:19;24.02;;;15.60;;
14268;SDS011;7218;51.480;7.006;2023-02-15T01:25:46;24.83;;;15.30;;
14268;SDS011;7218;51.480;7.006;2023-02-15T01:28:12;24.88;;;16.08;;
14268;SDS011;7218;51.480;7.006;2023-02-15T01:30:39;24.63;;;15.90;;
14268;SDS011;7218;51.480;7.006;2023-02-15T01:33:06;26.33;;;16.10;;
14268;SDS011;7218;51.480;7.006;2023-02-15T01:35:32;24.73;;;16.33;;
14268;SDS011;7218;51.480;7.006;2023-02-15T01:37:59;25.85;;;15.80;;
14268;SDS011;7218;51.480;7.006;2023-02-15T01:40:27;23.45;;;15.65;;
14268;SDS011;7218;51.480;7.006;2023-02-15T01:42:54;27.38;;;15.25;;
14268;SDS011;7218;51.480;7.006;2023-02-15T01:45:23;23.33;;;15.40;;
14268;SDS011;7218;51.480;7.006;2023-02-15T01:47:52;25.50;;;15.50;;
14268;SDS011;7218;51.480;7.006;2023-02-15T01:50:25;23.23;;;15.30;;
14268;SDS011;7218;51.480;7.006;2023-02-15T01:52:58;25.52;;;15.43;;
14268;SDS011;7218;51.480;7.006;2023-02-15T01:55:30;25.58;;;15.77;;
14268;SDS011;7218;51.480;7.006;2023-02-15T01:58:00;26.58;;;14.93;;
14268;SDS011;7218;51.480;7.006;2023-02-15T02:00:27;28.52;;;15.98;;
14268;SDS011;7218;51.480;7.006;2023-02-15T02:02:55;25.65;;;15.10;;
14268;SDS011;7218;51.480;7.006;2023-02-15T02:05:23;25.73;;;16.20;;
14268;SDS011;7218;51.480;7.006;2023-02-15T02:07:50;22.40;;;14.90;;
14268;SDS011;7218;51.480;7.006;2023-02-15T02:10:20;29.13;;;15.98;;
14268;SDS011;7218;51.480;7.006;2023-02-15T02:12:50;27.27;;;16.10;;
14268;SDS011;7218;51.480;7.006;2023-02-15T02:15:21;25.58;;;16.08;;
14268;SDS011;7218;51.480;7.006;2023-02-15T02:17:54;23.27;;;14.63;;
14268;SDS011;7218;51.480;7.006;2023-02-15T02:20:45;22.58;;;14.77;;
14268;SDS011;7218;51.480;7.006;2023-02-15T02:32:45;24.55;;;15.10;;
14268;SDS011;7218;51.480;7.006;2023-02-15T02:35:21;25.73;;;15.10;;
14268;SDS011;7218;51.480;7.006;2023-02-15T02:37:55;23.73;;;15.40;;
14268;SDS011;7218;51.480;7.006;2023-02-15T02:40:34;26.45;;;15.55;;
14268;SDS011;7218;51.480;7.006;2023-02-15T02:43:10;24.52;;;15.73;;
14268;SDS011;7218;51.480;7.006;2023-02-15T02:45:43;25.27;;;15.93;;
14268;SDS011;7218;51.480;7.006;2023-02-15T02:48:16;24.73;;;16.05;;
14268;SDS011;7218;51.480;7.006;2023-02-15T02:50:47;25.20;;;15.88;;
14268;SDS011;7218;51.480;7.006;2023-02-15T02:53:13;23.55;;;14.82;;
14268;SDS011;7218;51.480;7.006;2023-02-15T02:55:41;25.40;;;15.60;;
14268;SDS011;7218;51.480;7.006;2023-02-15T02:58:11;24.23;;;15.82;;
14268;SDS011;7218;51.480;7.006;2023-02-15T03:00:43;28.45;;;15.57;;
14268;SDS011;7218;51.480;7.006;2023-02-15T03:03:12;22.20;;;15.45;;
14268;SDS011;7218;51.480;7.006;2023-02-15T03:05:46;24.20;;;15.38;;
14268;SDS011;7218;51.480;7.006;2023-02-15T03:08:16;22.73;;;14.57;;
14268;SDS011;7218;51.480;7.006;2023-02-15T03:10:48;27.23;;;16.00;;
14268;SDS011;7218;51.480;7.006;2023-02-15T03:13:19;26.40;;;16.02;;
14268;SDS011;7218;51.480;7.006;2023-02-15T03:15:46;26.17;;;15.77;;
14268;SDS011;7218;51.480;7.006;2023-02-15T03:18:34;23.77;;;15.07;;
14268;SDS011;7218;51.480;7.006;2023-02-15T03:21:05;24.02;;;15.32;;
14268;SDS011;7218;51.480;7.006;2023-02-15T03:23:34;23.17;;;15.38;;
14268;SDS011;7218;51.480;7.006;2023-02-15T03:26:04;27.50;;;16.23;;
14268;SDS011;7218;51.480;7.006;2023-02-15T03:28:35;25.42;;;15.95;;
14268;SDS011;7218;51.480;7.006;2023-02-15T03:31:05;26.60;;;15.23;;
14268;SDS011;7218;51.480;7.006;2023-02-15T03:33:34;25.63;;;15.85;;
14268;SDS011;7218;51.480;7.006;2023-02-15T03:36:07;21.88;;;15.05;;
14268;SDS011;7218;51.480;7.006;2023-02-15T03:38:40;21.58;;;14.57;;
14268;SDS011;7218;51.480;7.006;2023-02-15T03:41:12;23.98;;;15.55;;
14268;SDS011;7218;51.480;7.006;2023-02-15T03:43:43;23.38;;;14.68;;
14268;SDS011;7218;51.480;7.006;2023-02-15T03:46:15;24.45;;;15.43;;
14268;SDS011;7218;51.480;7.006;2023-02-15T03:48:49;25.73;;;15.57;;
14268;SDS011;7218;51.480;7.006;2023-02-15T03:51:20;24.30;;;15.10;;
14268;SDS011;7218;51.480;7.006;2023-02-15T03:54:00;24.15;;;14.98;;
14268;SDS011;7218;51.480;7.006;2023-02-15T03:56:29;21.13;;;14.95;;
14268;SDS011;7218;51.480;7.006;2023-02-15T03:58:55;22.92;;;15.40;;
14268;SDS011;7218;51.480;7.006;2023-02-15T04:01:40;23.35;;;14.82;;
14268;SDS011;7218;51.480;7.006;2023-02-15T04:04:23;21.58;;;14.73;;
14268;SDS011;7218;51.480;7.006;2023-02-15T04:06:54;23.17;;;15.38;;
14268;SDS011;7218;51.480;7.006;2023-02-15T04:09:20;24.17;;;15.38;;
14268;SDS011;7218;51.480;7.006;2023-02-15T04:12:04;24.58;;;15.10;;
14268;SDS011;7218;51.480;7.006;2023-02-15T04:14:31;23.80;;;15.73;;
14268;SDS011;7218;51.480;7.006;2023-02-15T04:17:14;22.25;;;15.07;;
14268;SDS011;7218;51.480;7.006;2023-02-15T04:19:41;25.58;;;16.08;;
14268;SDS011;7218;51.480;7.006;2023-02-15T04:22:26;24.60;;;15.23;;
14268;SDS011;7218;51.480;7.006;2023-02-15T04:25:10;21.75;;;15.02;;
14268;SDS011;7218;51.480;7.006;2023-02-15T04:27:37;23.92;;;16.17;;
14268;SDS011;7218;51.480;7.006;2023-02-15T04:30:05;24.25;;;15.88;;
14268;SDS011;7218;51.480;7.006;2023-02-15T04:32:33;24.75;;;16.08;;
14268;SDS011;7218;51.480;7.006;2023-02-15T04:34:59;24.98;;;15.40;;
14268;SDS011;7218;51.480;7.006;2023-02-15T04:37:27;25.25;;;15.77;;
14268;SDS011;7218;51.480;7.006;2023-02-15T04:39:55;23.30;;;15.68;;
14268;SDS011;7218;51.480;7.006;2023-02-15T04:42:23;24.98;;;16.02;;
14268;SDS011;7218;51.480;7.006;2023-02-15T04:44:50;23.02;;;15.20;;
14268;SDS011;7218;51.480;7.006;2023-02-15T04:47:16;23.88;;;15.82;;
14268;SDS011;7218;51.480;7.006;2023-02-15T04:49:43;22.65;;;15.88;;
14268;SDS011;7218;51.480;7.006;2023-02-15T04:52:09;22.80;;;15.30;;
14268;SDS011;7218;51.480;7.006;2023-02-15T04:54:37;23.77;;;15.57;;
14268;SDS011;7218;51.480;7.006;2023-02-15T04:57:04;25.20;;;16.20;;
14268;SDS011;7218;51.480;7.006;2023-02-15T04:59:31;26.13;;;16.27;;
14268;SDS011;7218;51.480;7.006;2023-02-15T05:01:57;25.17;;;15.57;;
14268;SDS011;7218;51.480;7.006;2023-02-15T05:04:24;25.63;;;16.30;;
14268;SDS011;7218;51.480;7.006;2023-02-15T05:06:50;24.23;;;16.15;;
14268;SDS011;7218;51.480;7.006;2023-02-15T05:09:17;24.33;;;15.18;;
14268;SDS011;7218;51.480;7.006;2023-02-15T05:11:45;24.13;;;15.23;;
14268;SDS011;7218;51.480;7.006;2023-02-15T05:14:11;23.90;;;15.23;;
14268;SDS011;7218;51.480;7.006;2023-02-15T05:16:38;23.63;;;15.73;;
14268;SDS011;7218;51.480;7.006;2023-02-15T05:19:05;25.67;;;15.32;;
14268;SDS011;7218;51.480;7.006;2023-02-15T05:21:32;21.85;;;15.30;;
14268;SDS011;7218;51.480;7.006;2023-02-15T05:23:59;25.40;;;15.43;;
14268;SDS011;7218;51.480;7.006;2023-02-15T05:26:25;27.15;;;15.95;;
14268;SDS011;7218;51.480;7.006;2023-02-15T05:29:11;21.52;;;14.95;;
14268;SDS011;7218;51.480;7.006;2023-02-15T05:31:37;24.65;;;16.38;;
14268;SDS011;7218;51.480;7.006;2023-02-15T05:34:04;26.67;;;16.70;;
14268;SDS011;7218;51.480;7.006;2023-02-15T05:36:30;22.77;;;15.70;;
14268;SDS011;7218;51.480;7.006;2023-02-15T05:38:56;25.83;;;16.20;;
14268;SDS011;7218;51.480;7.006;2023-02-15T05:41:23;22.67;;;15.57;;
14268;SDS011;7218;51.480;7.006;2023-02-15T05:43:50;25.50;;;16.75;;
14268;SDS011;7218;51.480;7.006;2023-02-15T05:46:18;22.20;;;15.77;;
14268;SDS011;7218;51.480;7.006;2023-02-15T05:48:44;24.98;;;15.98;;
14268;SDS011;7218;51.480;7.006;2023-02-15T05:51:11;26.23;;;16.35;;
14268;SDS011;7218;51.480;7.006;2023-02-15T05:53:40;25.38;;;16.63;;
14268;SDS011;7218;51.480;7.006;2023-02-15T05:56:07;25.00;;;16.60;;
14268;SDS011;7218;51.480;7.006;2023-02-15T05:58:35;25.23;;;16.17;;
14268;SDS011;7218;51.480;7.006;2023-02-15T06:01:07;29.92;;;17.05;;
14268;SDS011;7218;51.480;7.006;2023-02-15T06:03:35;25.63;;;16.65;;
14268;SDS011;7218;51.480;7.006;2023-02-15T06:06:02;26.00;;;16.60;;
14268;SDS011;7218;51.480;7.006;2023-02-15T06:08:29;24.17;;;17.02;;
14268;SDS011;7218;51.480;7.006;2023-02-15T06:10:56;24.50;;;16.52;;
14268;SDS011;7218;51.480;7.006;2023-02-15T06:13:22;28.30;;;17.20;;
14268;SDS011;7218;51.480;7.006;2023-02-15T06:15:49;23.73;;;16.25;;
14268;SDS011;7218;51.480;7.006;2023-02-15T06:18:15;28.95;;;17.13;;
14268;SDS011;7218;51.480;7.006;2023-02-15T06:20:44;31.08;;;18.38;;
14268;SDS011;7218;51.480;7.006;2023-02-15T06:23:11;26.38;;;17.88;;
14268;SDS011;7218;51.480;7.006;2023-02-15T06:25:38;26.67;;;17.52;;
14268;SDS011;7218;51.480;7.006;2023-02-15T06:28:04;36.47;;;21.92;;
14268;SDS011;7218;51.480;7.006;2023-02-15T06:30:31;31.48;;;19.85;;
14268;SDS011;7218;51.480;7.006;2023-02-15T06:32:57;33.90;;;20.95;;
14268;SDS011;7218;51.480;7.006;2023-02-15T06:35:24;32.08;;;20.02;;
14268;SDS011;7218;51.480;7.006;2023-02-15T06:37:52;31.23;;;19.58;;
14268;SDS011;7218;51.480;7.006;2023-02-15T06:40:18;34.67;;;21.10;;
14268;SDS011;7218;51.480;7.006;2023-02-15T06:42:45;33.22;;;19.98;;
14268;SDS011;7218;51.480;7.006;2023-02-15T06:45:11;32.42;;;20.15;;
14268;SDS011;7218;51.480;7.006;2023-02-15T06:47:38;31.55;;;19.85;;
14268;SDS011;7218;51.480;7.006;2023-02-15T06:50:05;33.00;;;20.13;;
14268;SDS011;7218;51.480;7.006;2023-02-15T06:52:32;29.33;;;19.38;;
14268;SDS011;7218;51.480;7.006;2023-02-15T06:55:00;29.90;;;18.77;;
14268;SDS011;7218;51.480;7.006;2023-02-15T06:57:26;31.75;;;19.35;;
14268;SDS011;7218;51.480;7.006;2023-02-15T06:59:53;31.88;;;19.13;;
14268;SDS011;7218;51.480;7.006;2023-02-15T07:02:19;29.25;;;18.90;;
14268;SDS011;7218;51.480;7.006;2023-02-15T07:04:46;28.60;;;18.30;;
14268;SDS011;7218;51.480;7.006;2023-02-15T07:07:12;27.63;;;18.52;;
14268;SDS011;7218;51.480;7.006;2023-02-15T07:09:39;30.50;;;18.50;;
14268;SDS011;7218;51.480;7.006;2023-02-15T07:12:07;29.45;;;17.85;;
14268;SDS011;7218;51.480;7.006;2023-02-15T07:14:51;26.50;;;17.85;;
14268;SDS011;7218;51.480;7.006;2023-02-15T07:17:17;30.23;;;18.88;;
14268;SDS011;7218;51.480;7.006;2023-02-15T07:19:44;27.80;;;17.75;;
14268;SDS011;7218;51.480;7.006;2023-02-15T07:22:10;30.38;;;18.10;;
14268;SDS011;7218;51.480;7.006;2023-02-15T07:24:37;29.88;;;19.15;;
14268;SDS011;7218;51.480;7.006;2023-02-15T07:27:03;30.77;;;19.17;;
14268;SDS011;7218;51.480;7.006;2023-02-15T07:29:31;30.00;;;19.17;;
14268;SDS011;7218;51.480;7.006;2023-02-15T07:31:57;30.08;;;19.10;;
14268;SDS011;7218;51.480;7.006;2023-02-15T07:34:24;28.55;;;18.70;;
14268;SDS011;7218;51.480;7.006;2023-02-15T07:36:50;32.28;;;19.20;;
14268;SDS011;7218;51.480;7.006;2023-02-15T07:39:18;31.52;;;18.77;;
14268;SDS011;7218;51.480;7.006;2023-02-15T07:41:45;32.90;;;18.60;;
14268;SDS011;7218;51.480;7.006;2023-02-15T07:44:11;32.78;;;20.05;;
14268;SDS011;7218;51.480;7.006;2023-02-15T07:46:40;28.73;;;18.08;;
14268;SDS011;7218;51.480;7.006;2023-02-15T07:49:06;30.60;;;18.98;;
14268;SDS011;7218;51.480;7.006;2023-02-15T07:51:33;28.58;;;19.10;;
14268;SDS011;7218;51.480;7.006;2023-02-15T07:54:00;29.27;;;18.90;;
14268;SDS011;7218;51.480;7.006;2023-02-15T07:56:26;28.95;;;19.38;;
14268;SDS011;7218;51.480;7.006;2023-02-15T07:58:53;28.98;;;18.92;;
14268;SDS011;7218;51.480;7.006;2023-02-15T08:01:21;32.17;;;19.38;;
14268;SDS011;7218;51.480;7.006;2023-02-15T08:03:51;32.17;;;20.42;;
14268;SDS011;7218;51.480;7.006;2023-02-15T08:06:17;33.53;;;19.23;;
14268;SDS011;7218;51.480;7.006;2023-02-15T08:08:44;31.98;;;20.08;;
14268;SDS011;7218;51.480;7.006;2023-02-15T08:11:15;33.13;;;19.48;;
14268;SDS011;7218;51.480;7.006;2023-02-15T08:13:58;32.95;;;18.67;;
14268;SDS011;7218;51.480;7.006;2023-02-15T08:16:28;32.05;;;19.45;;
14268;SDS011;7218;51.480;7.006;2023-02-15T08:18:58;27.67;;;19.00;;
14268;SDS011;7218;51.480;7.006;2023-02-15T08:21:26;31.58;;;20.10;;
14268;SDS011;7218;51.480;7.006;2023-02-15T08:23:54;30.50;;;19.58;;
14268;SDS011;7218;51.480;7.006;2023-02-15T08:26:20;31.50;;;21.02;;
14268;SDS011;7218;51.480;7.006;2023-02-15T08:28:47;36.88;;;22.27;;
14268;SDS011;7218;51.480;7.006;2023-02-15T08:31:14;30.38;;;20.05;;
14268;SDS011;7218;51.480;7.006;2023-02-15T08:33:41;32.40;;;21.05;;
14268;SDS011;7218;51.480;7.006;2023-02-15T08:36:10;32.47;;;20.05;;
14268;SDS011;7218;51.480;7.006;2023-02-15T08:38:39;36.20;;;20.88;;
14268;SDS011;7218;51.480;7.006;2023-02-15T08:41:12;32.28;;;20.98;;
14268;SDS011;7218;51.480;7.006;2023-02-15T08:43:41;33.00;;;19.77;;
14268;SDS011;7218;51.480;7.006;2023-02-15T08:46:08;31.77;;;20.30;;
14268;SDS011;7218;51.480;7.006;2023-02-15T08:48:36;31.13;;;20.58;;
14268;SDS011;7218;51.480;7.006;2023-02-15T08:51:06;27.83;;;19.65;;
14268;SDS011;7218;51.480;7.006;2023-02-15T08:53:37;34.70;;;21.83;;
14268;SDS011;7218;51.480;7.006;2023-02-15T08:56:04;35.53;;;22.67;;
14268;SDS011;7218;51.480;7.006;2023-02-15T08:58:31;38.17;;;22.60;;
14268;SDS011;7218;51.480;7.006;2023-02-15T09:00:58;37.15;;;22.83;;
14268;SDS011;7218;51.480;7.006;2023-02-15T09:03:26;35.33;;;23.25;;
14268;SDS011;7218;51.480;7.006;2023-02-15T09:05:56;32.60;;;21.75;;
14268;SDS011;7218;51.480;7.006;2023-02-15T09:08:24;39.92;;;22.85;;
14268;SDS011;7218;51.480;7.006;2023-02-15T09:10:52;35.53;;;23.67;;
14268;SDS011;7218;51.480;7.006;2023-02-15T09:13:18;33.97;;;22.83;;
14268;SDS011;7218;51.480;7.006;2023-02-15T09:15:46;31.70;;;22.10;;
14268;SDS011;7218;51.480;7.006;2023-02-15T09:18:12;31.58;;;21.98;;
14268;SDS011;7218;51.480;7.006;2023-02-15T09:20:42;33.40;;;22.92;;
14268;SDS011;7218;51.480;7.006;2023-02-15T09:23:09;35.70;;;22.45;;
14268;SDS011;7218;51.480;7.006;2023-02-15T09:25:35;32.50;;;21.73;;
14268;SDS011;7218;51.480;7.006;2023-02-15T09:28:03;33.67;;;20.77;;
14268;SDS011;7218;51.480;7.006;2023-02-15T09:30:30;30.90;;;21.02;;
14268;SDS011;7218;51.480;7.006;2023-02-15T09:32:56;32.55;;;20.92;;
14268;SDS011;7218;51.480;7.006;2023-02-15T09:35:23;33.42;;;21.95;;
14268;SDS011;7218;51.480;7.006;2023-02-15T09:37:49;34.58;;;21.58;;
14268;SDS011;7218;51.480;7.006;2023-02-15T09:40:16;31.65;;;21.17;;
14268;SDS011;7218;51.480;7.006;2023-02-15T09:42:56;28.55;;;20.40;;
14268;SDS011;7218;51.480;7.006;2023-02-15T09:45:41;29.58;;;21.67;;
14268;SDS011;7218;51.480;7.006;2023-02-15T09:48:24;35.42;;;21.38;;
14268;SDS011;7218;51.480;7.006;2023-02-15T09:51:08;28.90;;;19.90;;
14268;SDS011;7218;51.480;7.006;2023-02-15T09:53:49;29.83;;;19.48;;
14268;SDS011;7218;51.480;7.006;2023-02-15T09:56:27;28.15;;;18.75;;
14268;SDS011;7218;51.480;7.006;2023-02-15T09:59:04;29.08;;;18.17;;
14268;SDS011;7218;51.480;7.006;2023-02-15T10:01:44;28.92;;;17.88;;
14268;SDS011;7218;51.480;7.006;2023-02-15T10:04:21;25.45;;;17.20;;
14268;SDS011;7218;51.480;7.006;2023-02-15T10:07:00;23.52;;;15.27;;
14268;SDS011;7218;51.480;7.006;2023-02-15T10:09:40;22.80;;;14.15;;
14268;SDS011;7218;51.480;7.006;2023-02-15T10:15:26;20.00;;;12.98;;
14268;SDS011;7218;51.480;7.006;2023-02-15T10:18:11;19.17;;;12.20;;
14268;SDS011;7218;51.480;7.006;2023-02-15T10:20:49;20.35;;;11.73;;
14268;SDS011;7218;51.480;7.006;2023-02-15T10:23:33;18.08;;;11.40;;
14268;SDS011;7218;51.480;7.006;2023-02-15T10:26:14;19.20;;;11.90;;
14268;SDS011;7218;51.480;7.006;2023-02-15T10:28:45;17.73;;;11.45;;
14268;SDS011;7218;51.480;7.006;2023-02-15T10:31:19;18.50;;;11.57;;
14268;SDS011;7218;51.480;7.006;2023-02-15T10:33:53;20.27;;;11.57;;
14268;SDS011;7218;51.480;7.006;2023-02-15T10:36:33;17.25;;;11.27;;
14268;SDS011;7218;51.480;7.006;2023-02-15T10:39:17;16.77;;;10.90;;
14268;SDS011;7218;51.480;7.006;2023-02-15T10:41:53;15.75;;;10.88;;
14268;SDS011;7218;51.480;7.006;2023-02-15T10:44:29;18.08;;;11.52;;
14268;SDS011;7218;51.480;7.006;2023-02-15T10:47:22;15.55;;;10.82;;
14268;SDS011;7218;51.480;7.006;2023-02-15T10:50:02;15.82;;;10.77;;
14268;SDS011;7218;51.480;7.006;2023-02-15T10:52:50;16.05;;;10.63;;
14268;SDS011;7218;51.480;7.006;2023-02-15T10:55:35;17.65;;;11.05;;
14268;SDS011;7218;51.480;7.006;2023-02-15T10:58:12;15.23;;;11.05;;
14268;SDS011;7218;51.480;7.006;2023-02-15T11:00:50;15.77;;;10.80;;
14268;SDS011;7218;51.480;7.006;2023-02-15T11:03:33;18.05;;;10.15;;
14268;SDS011;7218;51.480;7.006;2023-02-15T11:06:07;15.30;;;10.35;;
14268;SDS011;7218;51.480;7.006;2023-02-15T11:08:38;14.63;;;9.88;;
14268;SDS011;7218;51.480;7.006;2023-02-15T11:11:07;14.75;;;10.73;;
14268;SDS011;7218;51.480;7.006;2023-02-15T11:13:38;14.18;;;9.85;;
14268;SDS011;7218;51.480;7.006;2023-02-15T11:16:07;13.43;;;9.85;;
14268;SDS011;7218;51.480;7.006;2023-02-15T11:18:43;15.50;;;9.60;;
14268;SDS011;7218;51.480;7.006;2023-02-15T11:21:17;15.52;;;10.38;;
14268;SDS011;7218;51.480;7.006;2023-02-15T11:23:48;14.73;;;10.02;;
14268;SDS011;7218;51.480;7.006;2023-02-15T11:26:15;13.95;;;9.55;;
14268;SDS011;7218;51.480;7.006;2023-02-15T11:28:49;14.18;;;9.40;;
14268;SDS011;7218;51.480;7.006;2023-02-15T11:31:20;15.43;;;9.85;;
14268;SDS011;7218;51.480;7.006;2023-02-15T11:33:51;14.63;;;9.75;;
14268;SDS011;7218;51.480;7.006;2023-02-15T11:36:23;13.43;;;9.95;;
14268;SDS011;7218;51.480;7.006;2023-02-15T11:38:52;13.73;;;9.65;;
14268;SDS011;7218;51.480;7.006;2023-02-15T11:41:24;14.43;;;9.82;;
14268;SDS011;7218;51.480;7.006;2023-02-15T11:43:56;16.05;;;10.45;;
14268;SDS011;7218;51.480;7.006;2023-02-15T11:46:26;14.38;;;10.07;;
14268;SDS011;7218;51.480;7.006;2023-02-15T11:48:54;13.02;;;10.13;;
14268;SDS011;7218;51.480;7.006;2023-02-15T11:51:21;13.65;;;10.07;;
14268;SDS011;7218;51.480;7.006;2023-02-15T11:53:49;14.88;;;10.25;;
14268;SDS011;7218;51.480;7.006;2023-02-15T11:56:16;14.38;;;9.57;;
14268;SDS011;7218;51.480;7.006;2023-02-15T11:58:45;12.85;;;9.63;;
14268;SDS011;7218;51.480;7.006;2023-02-15T12:01:20;14.32;;;9.50;;
14268;SDS011;7218;51.480;7.006;2023-02-15T12:03:51;12.40;;;9.82;;
14268;SDS011;7218;51.480;7.006;2023-02-15T12:06:22;13.50;;;9.82;;
14268;SDS011;7218;51.480;7.006;2023-02-15T12:08:52;12.23;;;9.40;;
14268;SDS011;7218;51.480;7.006;2023-02-15T12:11:25;12.65;;;9.50;;
14268;SDS011;7218;51.480;7.006;2023-02-15T12:13:59;15.93;;;9.80;;
14268;SDS011;7218;51.480;7.006;2023-02-15T12:16:26;12.07;;;9.50;;
14268;SDS011;7218;51.480;7.006;2023-02-15T12:18:56;12.48;;;9.15;;
14268;SDS011;7218;51.480;7.006;2023-02-15T12:21:27;12.75;;;9.13;;
14268;SDS011;7218;51.480;7.006;2023-02-15T12:23:56;13.75;;;9.65;;
14268;SDS011;7218;51.480;7.006;2023-02-15T12:26:27;12.73;;;8.88;;
14268;SDS011;7218;51.480;7.006;2023-02-15T12:28:55;13.98;;;9.35;;
14268;SDS011;7218;51.480;7.006;2023-02-15T12:31:27;13.93;;;8.40;;
14268;SDS011;7218;51.480;7.006;2023-02-15T12:33:57;15.55;;;9.30;;
14268;SDS011;7218;51.480;7.006;2023-02-15T12:36:30;12.82;;;9.13;;
14268;SDS011;7218;51.480;7.006;2023-02-15T12:39:03;15.45;;;8.85;;
14268;SDS011;7218;51.480;7.006;2023-02-15T12:41:44;15.73;;;9.73;;
14268;SDS011;7218;51.480;7.006;2023-02-15T12:44:15;13.13;;;9.82;;
14268;SDS011;7218;51.480;7.006;2023-02-15T12:46:51;15.63;;;9.65;;
14268;SDS011;7218;51.480;7.006;2023-02-15T12:49:22;16.83;;;9.93;;
14268;SDS011;7218;51.480;7.006;2023-02-15T12:51:51;13.35;;;9.80;;
14268;SDS011;7218;51.480;7.006;2023-02-15T12:54:27;15.35;;;9.90;;
14268;SDS011;7218;51.480;7.006;2023-02-15T12:56:56;13.07;;;9.10;;
14268;SDS011;7218;51.480;7.006;2023-02-15T12:59:23;13.90;;;9.77;;
14268;SDS011;7218;51.480;7.006;2023-02-15T13:01:51;14.05;;;9.80;;
14268;SDS011;7218;51.480;7.006;2023-02-15T13:04:21;15.70;;;10.25;;
14268;SDS011;7218;51.480;7.006;2023-02-15T13:06:52;13.77;;;9.75;;
14268;SDS011;7218;51.480;7.006;2023-02-15T13:09:24;14.00;;;9.90;;
14268;SDS011;7218;51.480;7.006;2023-02-15T13:12:03;14.65;;;10.20;;
14268;SDS011;7218;51.480;7.006;2023-02-15T13:14:36;13.57;;;9.50;;
14268;SDS011;7218;51.480;7.006;2023-02-15T13:17:03;14.43;;;9.85;;
14268;SDS011;7218;51.480;7.006;2023-02-15T13:19:31;16.10;;;10.13;;
14268;SDS011;7218;51.480;7.006;2023-02-15T13:22:05;16.05;;;9.75;;
14268;SDS011;7218;51.480;7.006;2023-02-15T13:24:35;16.73;;;10.38;;
14268;SDS011;7218;51.480;7.006;2023-02-15T13:27:05;18.55;;;10.85;;
14268;SDS011;7218;51.480;7.006;2023-02-15T13:29:38;16.58;;;9.90;;
14268;SDS011;7218;51.480;7.006;2023-02-15T13:32:07;15.43;;;10.45;;
14268;SDS011;7218;51.480;7.006;2023-02-15T13:34:41;14.18;;;9.70;;
14268;SDS011;7218;51.480;7.006;2023-02-15T13:37:11;17.35;;;10.80;;
14268;SDS011;7218;51.480;7.006;2023-02-15T13:39:43;14.80;;;9.88;;
14268;SDS011;7218;51.480;7.006;2023-02-15T13:42:18;17.63;;;10.30;;
14268;SDS011;7218;51.480;7.006;2023-02-15T13:44:54;15.93;;;10.45;;
14268;SDS011;7218;51.480;7.006;2023-02-15T13:47:32;15.07;;;9.88;;
14268;SDS011;7218;51.480;7.006;2023-02-15T13:50:13;16.88;;;9.70;;
14268;SDS011;7218;51.480;7.006;2023-02-15T13:52:51;14.30;;;9.88;;
14268;SDS011;7218;51.480;7.006;2023-02-15T13:55:31;13.18;;;8.93;;
14268;SDS011;7218;51.480;7.006;2023-02-15T13:58:11;14.43;;;9.98;;
14268;SDS011;7218;51.480;7.006;2023-02-15T14:00:53;13.02;;;9.60;;
14268;SDS011;7218;51.480;7.006;2023-02-15T14:03:37;13.55;;;9.82;;
14268;SDS011;7218;51.480;7.006;2023-02-15T14:06:35;13.13;;;9.18;;
14268;SDS011;7218;51.480;7.006;2023-02-15T14:09:17;14.68;;;9.35;;
14268;SDS011;7218;51.480;7.006;2023-02-15T14:11:55;13.45;;;9.55;;
14268;SDS011;7218;51.480;7.006;2023-02-15T14:14:44;13.52;;;9.15;;
14268;SDS011;7218;51.480;7.006;2023-02-15T14:17:29;15.63;;;9.52;;
14268;SDS011;7218;51.480;7.006;2023-02-15T14:20:14;14.43;;;9.05;;
14268;SDS011;7218;51.480;7.006;2023-02-15T14:22:49;12.68;;;9.10;;
14268;SDS011;7218;51.480;7.006;2023-02-15T14:25:30;13.57;;;9.68;;
14268;SDS011;7218;51.480;7.006;2023-02-15T14:28:03;14.52;;;9.70;;
14268;SDS011;7218;51.480;7.006;2023-02-15T14:30:36;16.45;;;9.30;;
14268;SDS011;7218;51.480;7.006;2023-02-15T14:33:05;15.60;;;9.13;;
14268;SDS011;7218;51.480;7.006;2023-02-15T14:35:33;15.10;;;9.48;;
14268;SDS011;7218;51.480;7.006;2023-02-15T14:38:04;15.25;;;9.40;;
14268;SDS011;7218;51.480;7.006;2023-02-15T14:40:42;17.17;;;9.10;;
14268;SDS011;7218;51.480;7.006;2023-02-15T14:43:31;14.00;;;9.15;;
14268;SDS011;7218;51.480;7.006;2023-02-15T14:46:07;14.05;;;9.63;;
14268;SDS011;7218;51.480;7.006;2023-02-15T14:48:42;16.08;;;9.40;;
14268;SDS011;7218;51.480;7.006;2023-02-15T14:54:52;13.57;;;9.02;;
14268;SDS011;7218;51.480;7.006;2023-02-15T14:57:24;16.92;;;10.02;;
14268;SDS011;7218;51.480;7.006;2023-02-15T14:59:59;14.82;;;9.15;;
14268;SDS011;7218;51.480;7.006;2023-02-15T15:02:39;14.30;;;9.32;;
14268;SDS011;7218;51.480;7.006;2023-02-15T15:05:10;12.80;;;9.02;;
14268;SDS011;7218;51.480;7.006;2023-02-15T15:07:43;13.98;;;9.15;;
14268;SDS011;7218;51.480;7.006;2023-02-15T15:22:32;14.68;;;8.55;;
14268;SDS011;7218;51.480;7.006;2023-02-15T15:25:00;13.52;;;8.90;;
14268;SDS011;7218;51.480;7.006;2023-02-15T15:27:47;14.70;;;9.13;;
14268;SDS011;7218;51.480;7.006;2023-02-15T15:36:52;14.55;;;9.52;;